Time;durP1;ratioP1;P1;durP2;ratioP2;P2;SDS_P1;SDS_P2;PMS_P1;PMS_P2;Temp;Humidity;BMP_temperature;BMP_pressure;BME280_temperature;BME280_humidity;BME280_pressure;Samples;Min_cycle;Max_cycle;Signal;HPM_P1;HPM_P2
2023/06/25 00:00:17;;;;;;;;;;;21.50;99.90;;;;;;5115864;28;19996;-64
2023/06/25 00:02:42;;;;;;;;;;;21.50;99.90;;;;;;5115934;28;20030;-64
2023/06/25 00:05:08;;;;;;;;;;;21.40;99.90;;;;;;5115675;28;19985;-64
2023/06/25 00:07:34;;;;;;;;;;;21.30;99.90;;;;;;5115897;28;20032;-64
2023/06/25 00:09:59;;;;;;;;;;;21.20;99.90;;;;;;5115275;28;20093;-64
2023/06/25 00:12:25;;;;;;;;;;;21.20;99.90;;;;;;5115498;28;20446;-64
2023/06/25 00:14:51;;;;;;;;;;;21.30;99.90;;;;;;5115584;28;19984;-64
2023/06/25 00:17:17;;;;;;;;;;;21.40;99.90;;;;;;5115319;28;20024;-64
2023/06/25 00:19:46;;;;;;;;;;;21.30;99.90;;;;;;5115526;28;19985;-64
2023/06/25 00:22:12;;;;;;;;;;;21.30;99.90;;;;;;5115454;28;19991;-64
2023/06/25 00:24:38;;;;;;;;;;;21.30;99.90;;;;;;5115302;28;20425;-64
2023/06/25 00:27:04;;;;;;;;;;;21.30;99.90;;;;;;5115392;28;20080;-64
2023/06/25 00:29:29;;;;;;;;;;;21.30;99.90;;;;;;5115154;28;20015;-64
2023/06/25 00:31:55;;;;;;;;;;;21.40;99.90;;;;;;5115129;28;20018;-64
2023/06/25 00:34:20;;;;;;;;;;;21.40;99.90;;;;;;5115142;28;20031;-64
2023/06/25 00:36:46;;;;;;;;;;;21.40;99.90;;;;;;5115189;28;20025;-64
2023/06/25 00:39:11;;;;;;;;;;;21.40;99.90;;;;;;5114821;28;19988;-64
2023/06/25 00:41:39;;;;;;;;;;;21.50;99.90;;;;;;5114843;28;19984;-64
2023/06/25 00:44:08;;;;;;;;;;;21.40;99.90;;;;;;5115125;28;20435;-64
2023/06/25 00:46:34;;;;;;;;;;;21.40;99.90;;;;;;5114663;28;20028;-64
2023/06/25 00:49:05;;;;;;;;;;;21.50;99.90;;;;;;5114284;28;20008;-64
2023/06/25 00:51:32;;;;;;;;;;;21.50;99.90;;;;;;5115097;28;20450;-64
2023/06/25 00:53:57;;;;;;;;;;;21.50;99.90;;;;;;5114586;28;20102;-64
2023/06/25 00:56:31;;;;;;;;;;;21.50;99.90;;;;;;5114668;28;20024;-64
2023/06/25 00:59:00;;;;;;;;;;;21.40;99.90;;;;;;5114948;28;19992;-64
2023/06/25 01:01:31;;;;;;;;;;;21.30;99.90;;;;;;5114588;28;20447;-64
2023/06/25 01:04:00;;;;;;;;;;;21.30;99.90;;;;;;5114683;28;20405;-64
2023/06/25 01:06:30;;;;;;;;;;;21.30;99.90;;;;;;5114601;28;20080;-64
2023/06/25 01:08:59;;;;;;;;;;;21.40;99.90;;;;;;5114094;28;20012;-64
2023/06/25 01:11:24;;;;;;;;;;;21.30;99.90;;;;;;5114505;28;19984;-64
2023/06/25 01:13:50;;;;;;;;;;;21.40;99.90;;;;;;5114521;28;20470;-64
2023/06/25 01:16:16;;;;;;;;;;;21.40;99.90;;;;;;5114272;28;20465;-64
2023/06/25 01:18:41;;;;;;;;;;;21.40;99.90;;;;;;5114494;28;20550;-64
2023/06/25 01:21:08;;;;;;;;;;;21.40;99.90;;;;;;5114421;28;19984;-64
2023/06/25 01:23:36;;;;;;;;;;;21.40;99.90;;;;;;5114102;28;20346;-64
2023/06/25 01:26:02;;;;;;;;;;;21.30;99.90;;;;;;5114338;28;20366;-64
2023/06/25 01:28:29;;;;;;;;;;;21.20;99.90;;;;;;5114198;28;19985;-64
2023/06/25 01:30:55;;;;;;;;;;;21.20;99.90;;;;;;5114184;28;20007;-64
2023/06/25 01:33:21;;;;;;;;;;;21.30;99.90;;;;;;5114421;28;20415;-64
2023/06/25 01:35:46;;;;;;;;;;;21.30;99.90;;;;;;5113987;28;20083;-64
2023/06/25 01:38:12;;;;;;;;;;;21.30;99.90;;;;;;5114216;28;20458;-64
2023/06/25 01:40:38;;;;;;;;;;;21.30;99.90;;;;;;5114098;28;20102;-64
2023/06/25 01:43:03;;;;;;;;;;;21.30;99.90;;;;;;5114278;28;20355;-64
2023/06/25 01:45:29;;;;;;;;;;;21.30;99.90;;;;;;5113938;28;20042;-64
2023/06/25 01:47:55;;;;;;;;;;;21.30;99.90;;;;;;5114016;28;19985;-64
2023/06/25 01:50:20;;;;;;;;;;;21.30;99.90;;;;;;5113779;28;20008;-64
2023/06/25 01:52:46;;;;;;;;;;;21.30;99.90;;;;;;5114084;28;19989;-64
2023/06/25 01:55:11;;;;;;;;;;;21.30;99.90;;;;;;5113943;28;19991;-64
2023/06/25 01:57:37;;;;;;;;;;;21.20;99.90;;;;;;5113979;28;19991;-64
2023/06/25 02:00:04;;;;;;;;;;;21.20;99.90;;;;;;5114112;28;19985;-64
2023/06/25 02:02:29;;;;;;;;;;;21.20;99.90;;;;;;5117361;28;20016;-64
2023/06/25 02:04:55;;;;;;;;;;;21.20;99.90;;;;;;5117907;28;19992;-64
2023/06/25 02:07:20;;;;;;;;;;;21.10;99.90;;;;;;5118097;28;19992;-64
2023/06/25 02:09:46;;;;;;;;;;;21.10;99.90;;;;;;5117829;28;20012;-64
2023/06/25 02:12:12;;;;;;;;;;;21.10;99.90;;;;;;5117882;28;20033;-64
2023/06/25 02:14:37;;;;;;;;;;;21.20;99.90;;;;;;5117982;28;19988;-64
2023/06/25 02:17:03;;;;;;;;;;;21.20;99.90;;;;;;5118101;28;19997;-64
2023/06/25 02:19:28;;;;;;;;;;;21.20;99.90;;;;;;5117494;28;20020;-64
2023/06/25 02:21:54;;;;;;;;;;;21.10;99.90;;;;;;5117838;28;19985;-65
2023/06/25 02:24:19;;;;;;;;;;;21.00;99.90;;;;;;5117938;28;19988;-64
2023/06/25 02:26:45;;;;;;;;;;;21.00;99.90;;;;;;5117553;28;20027;-64
2023/06/25 02:29:10;;;;;;;;;;;21.00;99.90;;;;;;5117609;28;20061;-64
2023/06/25 02:31:36;;;;;;;;;;;21.00;99.90;;;;;;5117560;28;19992;-65
2023/06/25 02:34:01;;;;;;;;;;;21.00;99.90;;;;;;5117258;28;19991;-64
2023/06/25 02:36:27;;;;;;;;;;;21.00;99.90;;;;;;5117565;28;20024;-64
2023/06/25 02:38:53;;;;;;;;;;;21.00;99.90;;;;;;5117493;28;20350;-64
2023/06/25 02:41:18;;;;;;;;;;;20.90;99.90;;;;;;5117402;28;20031;-64
2023/06/25 02:43:44;;;;;;;;;;;20.90;99.90;;;;;;5117176;28;20008;-64
2023/06/25 02:46:09;;;;;;;;;;;21.00;99.90;;;;;;5117161;28;20024;-64
2023/06/25 02:48:36;;;;;;;;;;;20.90;99.90;;;;;;5117015;28;20080;-64
2023/06/25 02:51:01;;;;;;;;;;;20.80;99.90;;;;;;5117101;28;19984;-64
2023/06/25 02:53:27;;;;;;;;;;;20.70;99.90;;;;;;5117135;28;20470;-64
2023/06/25 02:55:52;;;;;;;;;;;20.70;99.90;;;;;;5117131;28;20034;-64
2023/06/25 02:58:18;;;;;;;;;;;20.70;99.90;;;;;;5117001;28;20510;-64
2023/06/25 03:00:43;;;;;;;;;;;20.70;99.90;;;;;;5117017;28;20431;-64
2023/06/25 03:03:09;;;;;;;;;;;20.70;99.90;;;;;;5116740;28;20454;-64
2023/06/25 03:05:34;;;;;;;;;;;20.70;99.90;;;;;;5116843;28;20118;-64
2023/06/25 03:08:00;;;;;;;;;;;20.70;99.90;;;;;;5116952;28;20053;-64
2023/06/25 03:10:28;;;;;;;;;;;20.70;99.90;;;;;;5116687;28;20012;-64
2023/06/25 03:12:53;;;;;;;;;;;20.70;99.90;;;;;;5116428;28;19992;-64
2023/06/25 03:15:19;;;;;;;;;;;20.70;99.90;;;;;;5116700;28;20030;-64
2023/06/25 03:17:45;;;;;;;;;;;20.80;99.90;;;;;;5116484;28;20034;-64
2023/06/25 03:20:11;;;;;;;;;;;20.80;99.90;;;;;;5116692;28;20423;-64
2023/06/25 03:22:36;;;;;;;;;;;20.80;99.90;;;;;;5116509;28;20163;-64
2023/06/25 03:25:03;;;;;;;;;;;20.80;99.90;;;;;;5116468;28;20435;-64
2023/06/25 03:27:29;;;;;;;;;;;20.80;99.90;;;;;;5116542;28;20028;-64
2023/06/25 03:29:55;;;;;;;;;;;20.70;99.90;;;;;;5116305;28;20519;-64
2023/06/25 03:32:21;;;;;;;;;;;20.70;99.90;;;;;;5116151;28;19989;-64
2023/06/25 03:34:46;;;;;;;;;;;20.80;99.90;;;;;;5116326;28;19988;-64
2023/06/25 03:37:12;;;;;;;;;;;20.70;99.90;;;;;;5116321;28;20459;-64
2023/06/25 03:39:37;;;;;;;;;;;20.60;99.90;;;;;;5116224;28;19991;-64
2023/06/25 03:42:03;;;;;;;;;;;20.70;99.90;;;;;;5116232;28;20101;-64
2023/06/25 03:44:28;;;;;;;;;;;20.70;99.90;;;;;;5115994;28;19991;-64
2023/06/25 03:46:54;;;;;;;;;;;20.70;99.90;;;;;;5115657;28;20021;-64
2023/06/25 03:49:19;;;;;;;;;;;20.80;99.90;;;;;;5116011;28;20008;-64
2023/06/25 03:51:45;;;;;;;;;;;20.80;99.90;;;;;;5116001;28;20039;-64
2023/06/25 03:54:10;;;;;;;;;;;20.80;99.90;;;;;;5115871;28;20038;-64
2023/06/25 03:56:36;;;;;;;;;;;20.80;99.90;;;;;;5115831;28;20002;-64
2023/06/25 03:59:02;;;;;;;;;;;20.80;99.90;;;;;;5115890;28;20508;-64
2023/06/25 04:01:27;;;;;;;;;;;20.80;99.90;;;;;;5115616;28;19985;-64
2023/06/25 04:03:53;;;;;;;;;;;20.70;99.90;;;;;;5115885;28;20504;-64
2023/06/25 04:06:18;;;;;;;;;;;20.70;99.90;;;;;;5115662;28;20021;-64
2023/06/25 04:08:44;;;;;;;;;;;20.70;99.90;;;;;;5115578;28;19985;-64
2023/06/25 04:11:09;;;;;;;;;;;20.80;99.90;;;;;;5115574;28;20478;-64
2023/06/25 04:13:35;;;;;;;;;;;20.80;99.90;;;;;;5115824;28;19988;-64
2023/06/25 04:16:00;;;;;;;;;;;20.80;99.90;;;;;;5115322;28;19985;-64
2023/06/25 04:18:26;;;;;;;;;;;20.80;99.90;;;;;;5115370;28;20023;-64
2023/06/25 04:20:51;;;;;;;;;;;20.80;99.90;;;;;;5115381;28;20435;-64
2023/06/25 04:23:17;;;;;;;;;;;20.70;99.90;;;;;;5114850;28;20396;-64
2023/06/25 04:25:43;;;;;;;;;;;20.70;99.90;;;;;;5114983;28;20008;-64
2023/06/25 04:28:15;;;;;;;;;;;20.70;99.90;;;;;;5115364;28;19984;-64
2023/06/25 04:30:41;;;;;;;;;;;20.70;99.90;;;;;;5114946;28;20015;-64
2023/06/25 04:33:07;;;;;;;;;;;20.60;99.90;;;;;;5115017;28;19992;-64
2023/06/25 04:35:33;;;;;;;;;;;20.60;99.90;;;;;;5115148;28;19991;-64
2023/06/25 04:37:58;;;;;;;;;;;20.60;99.90;;;;;;5115147;28;19988;-64
2023/06/25 04:40:24;;;;;;;;;;;20.60;99.90;;;;;;5114955;28;20405;-64
2023/06/25 04:42:50;;;;;;;;;;;20.60;99.90;;;;;;5114927;28;20001;-64
2023/06/25 04:45:15;;;;;;;;;;;20.60;99.90;;;;;;5114827;28;20490;-64
2023/06/25 04:47:41;;;;;;;;;;;20.60;99.90;;;;;;5114847;28;20034;-64
2023/06/25 04:50:06;;;;;;;;;;;20.70;99.90;;;;;;5114900;28;20065;-64
2023/06/25 04:52:32;;;;;;;;;;;20.70;99.90;;;;;;5115100;28;19988;-64
2023/06/25 04:54:58;;;;;;;;;;;20.80;99.90;;;;;;5114865;28;20019;-64
2023/06/25 04:57:23;;;;;;;;;;;20.80;99.90;;;;;;5114602;28;19989;-64
2023/06/25 04:59:49;;;;;;;;;;;20.80;99.90;;;;;;5114521;28;20039;-64
2023/06/25 05:02:14;;;;;;;;;;;20.90;99.90;;;;;;5114679;28;20389;-64
2023/06/25 05:04:40;;;;;;;;;;;20.80;99.90;;;;;;5114530;28;19985;-64
2023/06/25 05:07:06;;;;;;;;;;;20.90;99.90;;;;;;5114779;28;20024;-64
2023/06/25 05:09:31;;;;;;;;;;;20.90;99.90;;;;;;5114538;28;20459;-64
2023/06/25 05:11:57;;;;;;;;;;;20.90;99.90;;;;;;5114398;28;20366;-64
2023/06/25 05:14:22;;;;;;;;;;;20.90;99.90;;;;;;5114575;28;20057;-64
2023/06/25 05:16:48;;;;;;;;;;;20.80;99.90;;;;;;5114503;28;19988;-64
2023/06/25 05:19:13;;;;;;;;;;;20.80;99.90;;;;;;5114436;28;19991;-64
2023/06/25 05:21:39;;;;;;;;;;;20.90;99.90;;;;;;5114299;28;20007;-64
2023/06/25 05:24:04;;;;;;;;;;;20.90;99.90;;;;;;5114440;28;20435;-64
2023/06/25 05:26:30;;;;;;;;;;;20.90;99.90;;;;;;5114259;28;19992;-64
2023/06/25 05:28:56;;;;;;;;;;;20.80;99.90;;;;;;5113925;28;20035;-64
2023/06/25 05:31:21;;;;;;;;;;;20.90;99.90;;;;;;5114305;28;19992;-64
2023/06/25 05:33:47;;;;;;;;;;;20.90;99.90;;;;;;5114165;28;20000;-64
2023/06/25 05:36:14;;;;;;;;;;;20.90;99.90;;;;;;5114038;28;20027;-64
2023/06/25 05:38:39;;;;;;;;;;;20.90;99.90;;;;;;5114110;28;20039;-64
2023/06/25 05:41:05;;;;;;;;;;;21.00;99.90;;;;;;5114030;28;19989;-64
2023/06/25 05:43:30;;;;;;;;;;;21.00;99.90;;;;;;5113739;28;20000;-64
2023/06/25 05:45:56;;;;;;;;;;;21.00;99.90;;;;;;5113898;28;20031;-64
2023/06/25 05:48:21;;;;;;;;;;;21.10;99.90;;;;;;5114090;28;20496;-64
2023/06/25 05:50:47;;;;;;;;;;;21.20;99.90;;;;;;5114167;28;20017;-64
2023/06/25 05:53:13;;;;;;;;;;;21.30;99.90;;;;;;5113929;28;19992;-64
2023/06/25 05:55:38;;;;;;;;;;;21.40;99.90;;;;;;5114022;28;19991;-64
2023/06/25 05:58:04;;;;;;;;;;;21.40;99.90;;;;;;5113805;28;20081;-64
2023/06/25 06:00:29;;;;;;;;;;;21.40;99.90;;;;;;5113805;28;19986;-64
2023/06/25 06:02:55;;;;;;;;;;;21.40;99.90;;;;;;5114010;28;20443;-64
2023/06/25 06:05:20;;;;;;;;;;;21.30;99.90;;;;;;5113884;28;19992;-64
2023/06/25 06:07:46;;;;;;;;;;;21.20;99.90;;;;;;5113889;28;19989;-64
2023/06/25 06:10:14;;;;;;;;;;;21.30;99.90;;;;;;5113927;28;20107;-64
2023/06/25 06:12:39;;;;;;;;;;;21.30;99.90;;;;;;5113696;28;19992;-64
2023/06/25 06:15:05;;;;;;;;;;;21.40;99.90;;;;;;5113815;28;19985;-64
2023/06/25 06:17:31;;;;;;;;;;;21.50;99.90;;;;;;5114098;28;19989;-64
2023/06/25 06:19:56;;;;;;;;;;;21.40;99.90;;;;;;5113951;28;19993;-65
2023/06/25 06:22:22;;;;;;;;;;;21.40;99.90;;;;;;5113738;28;20463;-64
2023/06/25 06:24:47;;;;;;;;;;;21.50;99.90;;;;;;5113714;28;19999;-64
2023/06/25 06:27:13;;;;;;;;;;;21.50;99.90;;;;;;5113615;28;19985;-64
2023/06/25 06:29:38;;;;;;;;;;;21.60;99.90;;;;;;5113659;28;20111;-64
2023/06/25 06:32:04;;;;;;;;;;;21.60;99.90;;;;;;5113585;28;19985;-64
2023/06/25 06:34:30;;;;;;;;;;;21.60;99.90;;;;;;5113639;28;19984;-64
2023/06/25 06:36:55;;;;;;;;;;;21.50;99.90;;;;;;5113648;28;20067;-64
2023/06/25 06:39:21;;;;;;;;;;;21.50;99.90;;;;;;5113552;28;19985;-64
2023/06/25 06:41:46;;;;;;;;;;;21.60;99.90;;;;;;5113304;28;20360;-64
2023/06/25 06:44:16;;;;;;;;;;;21.70;99.90;;;;;;5113693;28;19984;-64
2023/06/25 06:46:42;;;;;;;;;;;21.80;99.90;;;;;;5113696;28;20020;-64
2023/06/25 06:49:08;;;;;;;;;;;21.90;99.90;;;;;;5117106;28;20031;-64
2023/06/25 06:51:33;;;;;;;;;;;21.80;99.90;;;;;;5117174;28;19988;-64
2023/06/25 06:53:59;;;;;;;;;;;21.80;99.50;;;;;;5117078;28;19988;-64
2023/06/25 06:56:25;;;;;;;;;;;21.80;99.90;;;;;;5116910;28;20008;-64
2023/06/25 06:58:51;;;;;;;;;;;21.80;99.90;;;;;;5117388;28;19984;-64
2023/06/25 07:01:16;;;;;;;;;;;21.90;99.90;;;;;;5117052;28;19995;-64
2023/06/25 07:03:42;;;;;;;;;;;22.00;99.80;;;;;;5116846;28;19985;-64
2023/06/25 07:06:08;;;;;;;;;;;22.20;98.80;;;;;;5117029;28;20033;-64
2023/06/25 07:08:33;;;;;;;;;;;22.20;98.40;;;;;;5116978;28;20458;-64
2023/06/25 07:10:59;;;;;;;;;;;22.20;99.00;;;;;;5116424;28;20013;-64
2023/06/25 07:13:25;;;;;;;;;;;22.10;98.30;;;;;;5116906;28;20083;-64
2023/06/25 07:15:50;;;;;;;;;;;22.10;97.80;;;;;;5116798;28;19985;-64
2023/06/25 07:18:16;;;;;;;;;;;22.10;96.80;;;;;;5116578;28;19989;-64
2023/06/25 07:20:41;;;;;;;;;;;22.20;96.80;;;;;;5116794;28;19992;-64
2023/06/25 07:23:07;;;;;;;;;;;22.30;96.00;;;;;;5116608;28;20075;-64
2023/06/25 07:25:32;;;;;;;;;;;22.30;95.30;;;;;;5116285;28;19988;-64
2023/06/25 07:27:58;;;;;;;;;;;22.30;95.70;;;;;;5116655;28;19993;-64
2023/06/25 07:30:24;;;;;;;;;;;22.20;95.50;;;;;;5116487;28;20474;-64
2023/06/25 07:32:49;;;;;;;;;;;22.30;96.20;;;;;;5116381;28;20016;-64
2023/06/25 07:35:15;;;;;;;;;;;22.40;93.70;;;;;;5116271;28;20405;-64
2023/06/25 07:37:40;;;;;;;;;;;22.40;94.40;;;;;;5116326;28;20355;-64
2023/06/25 07:40:06;;;;;;;;;;;22.40;94.70;;;;;;5116112;28;20083;-64
2023/06/25 07:42:32;;;;;;;;;;;22.30;94.30;;;;;;5116270;28;20111;-64
2023/06/25 07:44:57;;;;;;;;;;;22.30;94.00;;;;;;5115978;28;20033;-64
2023/06/25 07:47:23;;;;;;;;;;;22.30;93.70;;;;;;5116206;28;19984;-64
2023/06/25 07:49:49;;;;;;;;;;;22.40;93.80;;;;;;5115874;28;20008;-64
2023/06/25 07:52:14;;;;;;;;;;;22.40;94.40;;;;;;5116125;28;20033;-64
2023/06/25 07:54:40;;;;;;;;;;;22.50;94.30;;;;;;5115899;28;20034;-64
2023/06/25 07:57:05;;;;;;;;;;;22.60;94.10;;;;;;5115882;28;20343;-64
2023/06/25 07:59:32;;;;;;;;;;;22.70;93.20;;;;;;5114820;28;20458;-64
2023/06/25 08:01:58;;;;;;;;;;;22.50;93.30;;;;;;5115784;28;20498;-64
2023/06/25 08:04:24;;;;;;;;;;;22.60;92.60;;;;;;5115825;28;20035;-64
2023/06/25 08:06:49;;;;;;;;;;;22.60;93.30;;;;;;5115614;28;19988;-64
2023/06/25 08:09:15;;;;;;;;;;;22.60;93.10;;;;;;5115610;28;20058;-64
2023/06/25 08:11:41;;;;;;;;;;;22.80;92.80;;;;;;5115548;28;20080;-64
2023/06/25 08:14:08;;;;;;;;;;;22.90;91.60;;;;;;5115405;28;19988;-64
2023/06/25 08:16:34;;;;;;;;;;;23.00;91.50;;;;;;5115663;28;19988;-64
2023/06/25 08:19:00;;;;;;;;;;;23.20;91.10;;;;;;5115400;28;20030;-64
2023/06/25 08:21:25;;;;;;;;;;;23.40;91.60;;;;;;5115236;28;20095;-64
2023/06/25 08:23:51;;;;;;;;;;;23.40;91.30;;;;;;5115274;28;20060;-64
2023/06/25 08:26:17;;;;;;;;;;;23.60;90.70;;;;;;5115312;28;19989;-64
2023/06/25 08:28:42;;;;;;;;;;;23.80;91.50;;;;;;5115068;28;19985;-64
2023/06/25 08:31:09;;;;;;;;;;;23.90;91.00;;;;;;5115273;28;20507;-64
2023/06/25 08:33:34;;;;;;;;;;;24.00;90.80;;;;;;5115731;28;19988;-64
2023/06/25 08:36:00;;;;;;;;;;;24.10;89.90;;;;;;5115153;28;20416;-64
2023/06/25 08:38:26;;;;;;;;;;;24.20;88.10;;;;;;5114866;28;20388;-64
2023/06/25 08:40:52;;;;;;;;;;;24.30;87.50;;;;;;5115148;28;19984;-64
2023/06/25 08:43:18;;;;;;;;;;;24.30;88.20;;;;;;5115215;28;20359;-64
2023/06/25 08:45:43;;;;;;;;;;;24.30;88.70;;;;;;5114889;28;20027;-64
2023/06/25 08:48:11;;;;;;;;;;;24.20;88.30;;;;;;5114940;28;19989;-64
2023/06/25 08:50:39;;;;;;;;;;;24.20;86.80;;;;;;5114859;28;20036;-64
2023/06/25 08:53:05;;;;;;;;;;;24.10;87.00;;;;;;5114859;28;19989;-64
2023/06/25 08:55:31;;;;;;;;;;;24.00;88.00;;;;;;5114938;28;20385;-64
2023/06/25 08:57:57;;;;;;;;;;;23.90;88.20;;;;;;5114866;28;19989;-64
2023/06/25 09:00:22;;;;;;;;;;;24.00;88.80;;;;;;5114607;28;19985;-64
2023/06/25 09:02:48;;;;;;;;;;;23.90;87.20;;;;;;5114797;28;20032;-64
2023/06/25 09:05:22;;;;;;;;;;;23.80;88.20;;;;;;5114651;28;20496;-64
2023/06/25 09:07:47;;;;;;;;;;;23.70;90.20;;;;;;5114219;28;19989;-64
2023/06/25 09:10:13;;;;;;;;;;;23.60;88.90;;;;;;5114237;28;20374;-64
2023/06/25 09:12:38;;;;;;;;;;;23.40;89.60;;;;;;5114544;28;20422;-64
2023/06/25 09:15:07;;;;;;;;;;;23.40;90.10;;;;;;5114413;28;19984;-64
2023/06/25 09:17:33;;;;;;;;;;;23.30;90.60;;;;;;5114615;28;19985;-64
2023/06/25 09:20:05;;;;;;;;;;;23.20;92.00;;;;;;5114493;28;19988;-64
2023/06/25 09:22:31;;;;;;;;;;;23.20;90.60;;;;;;5114206;28;20451;-64
2023/06/25 09:24:56;;;;;;;;;;;23.30;88.80;;;;;;5114421;28;20441;-64
2023/06/25 09:27:22;;;;;;;;;;;23.50;89.00;;;;;;5114394;28;19999;-64
2023/06/25 09:29:48;;;;;;;;;;;23.60;88.20;;;;;;5114151;28;20013;-64
2023/06/25 09:32:16;;;;;;;;;;;23.50;90.00;;;;;;5114546;28;19996;-64
2023/06/25 09:34:45;;;;;;;;;;;23.60;88.20;;;;;;5114225;28;20055;-64
2023/06/25 09:37:11;;;;;;;;;;;23.70;87.60;;;;;;5113934;28;20347;-64
2023/06/25 09:39:36;;;;;;;;;;;23.80;89.40;;;;;;5114145;28;19995;-64
2023/06/25 09:42:03;;;;;;;;;;;23.80;89.00;;;;;;5114023;28;20004;-64
2023/06/25 09:44:28;;;;;;;;;;;23.90;90.20;;;;;;5114037;28;20467;-64
2023/06/25 09:46:58;;;;;;;;;;;24.00;89.10;;;;;;5113998;28;20021;-64
2023/06/25 09:49:24;;;;;;;;;;;24.20;87.10;;;;;;5114066;28;20009;-64
2023/06/25 09:51:51;;;;;;;;;;;24.30;85.60;;;;;;5113812;28;19992;-64
2023/06/25 09:54:18;;;;;;;;;;;24.40;86.60;;;;;;5114161;28;20014;-64
2023/06/25 09:56:45;;;;;;;;;;;24.40;86.20;;;;;;5114063;28;19989;-64
2023/06/25 09:59:11;;;;;;;;;;;24.50;85.20;;;;;;5114154;28;19992;-66
2023/06/25 10:01:37;;;;;;;;;;;24.60;85.40;;;;;;5113952;28;19989;-64
2023/06/25 10:04:02;;;;;;;;;;;24.60;84.50;;;;;;5114382;28;19997;-64
2023/06/25 10:06:28;;;;;;;;;;;24.80;83.80;;;;;;5113979;28;20419;-64
2023/06/25 10:08:54;;;;;;;;;;;24.50;83.40;;;;;;5113708;28;19992;-64
2023/06/25 10:11:20;;;;;;;;;;;24.40;86.10;;;;;;5113917;28;19985;-64
2023/06/25 10:13:45;;;;;;;;;;;24.40;83.90;;;;;;5113894;28;20011;-64
2023/06/25 10:16:16;;;;;;;;;;;24.50;83.70;;;;;;5113722;28;20033;-65
2023/06/25 10:18:42;;;;;;;;;;;24.50;83.30;;;;;;5113905;28;20358;-64
2023/06/25 10:21:07;;;;;;;;;;;24.60;81.30;;;;;;5113789;28;20005;-64
2023/06/25 10:23:35;;;;;;;;;;;24.80;81.60;;;;;;5117099;28;20079;-64
2023/06/25 10:26:01;;;;;;;;;;;24.80;81.20;;;;;;5117685;28;19992;-64
2023/06/25 10:28:29;;;;;;;;;;;24.80;82.60;;;;;;5117704;28;19992;-64
2023/06/25 10:30:55;;;;;;;;;;;24.80;84.10;;;;;;5117441;28;20012;-64
2023/06/25 10:33:21;;;;;;;;;;;24.70;83.80;;;;;;5117341;28;20080;-64
2023/06/25 10:35:50;;;;;;;;;;;24.60;82.70;;;;;;5117768;28;19993;-64
2023/06/25 10:38:16;;;;;;;;;;;24.60;83.90;;;;;;5117412;28;20035;-64
2023/06/25 10:40:42;;;;;;;;;;;24.70;83.90;;;;;;5117563;28;20012;-64
2023/06/25 10:43:07;;;;;;;;;;;24.90;82.70;;;;;;5117358;28;20522;-64
2023/06/25 10:45:33;;;;;;;;;;;25.00;80.70;;;;;;5117178;28;20052;-64
2023/06/25 10:48:00;;;;;;;;;;;25.00;80.50;;;;;;5117273;28;20457;-64
2023/06/25 10:50:29;;;;;;;;;;;25.00;82.20;;;;;;5117400;28;20237;-64
2023/06/25 10:52:54;;;;;;;;;;;24.90;81.40;;;;;;5117121;28;20076;-64
2023/06/25 10:55:20;;;;;;;;;;;25.00;80.40;;;;;;5117256;28;20427;-64
2023/06/25 10:57:47;;;;;;;;;;;25.00;81.10;;;;;;5117198;28;19991;-64
2023/06/25 11:00:13;;;;;;;;;;;25.10;81.50;;;;;;5117002;28;19988;-64
2023/06/25 11:02:39;;;;;;;;;;;24.90;81.20;;;;;;5117040;28;19992;-64
2023/06/25 11:05:04;;;;;;;;;;;24.90;81.20;;;;;;5116937;28;20457;-64
2023/06/25 11:07:30;;;;;;;;;;;24.90;82.10;;;;;;5116922;28;20342;-64
2023/06/25 11:09:56;;;;;;;;;;;25.10;83.60;;;;;;5116732;28;20019;-64
2023/06/25 11:12:22;;;;;;;;;;;25.20;83.20;;;;;;5116840;28;20007;-64
2023/06/25 11:14:47;;;;;;;;;;;25.20;81.60;;;;;;5116843;28;19989;-64
2023/06/25 11:17:13;;;;;;;;;;;25.10;81.00;;;;;;5116520;28;20028;-64
2023/06/25 11:19:39;;;;;;;;;;;24.90;81.40;;;;;;5116685;28;20007;-64
2023/06/25 11:22:06;;;;;;;;;;;24.90;81.10;;;;;;5116594;28;19988;-64
2023/06/25 11:24:38;;;;;;;;;;;24.90;80.00;;;;;;5116571;28;19985;-64
2023/06/25 11:27:04;;;;;;;;;;;24.90;79.90;;;;;;5116496;28;19988;-64
2023/06/25 11:29:39;;;;;;;;;;;24.80;79.80;;;;;;5116385;28;20112;-64
2023/06/25 11:32:07;;;;;;;;;;;24.80;82.20;;;;;;5116206;28;19984;-64
2023/06/25 11:34:33;;;;;;;;;;;24.80;80.50;;;;;;5116199;28;20126;-64
2023/06/25 11:37:15;;;;;;;;;;;24.80;79.70;;;;;;5116343;28;19992;-64
2023/06/25 11:39:42;;;;;;;;;;;24.90;81.30;;;;;;5116506;28;20028;-64
2023/06/25 11:42:14;;;;;;;;;;;25.20;81.60;;;;;;5116180;28;20000;-64
2023/06/25 11:44:40;;;;;;;;;;;25.30;79.40;;;;;;5116142;28;19984;-64
2023/06/25 11:47:06;;;;;;;;;;;25.40;79.30;;;;;;5115835;28;20020;-64
2023/06/25 11:49:31;;;;;;;;;;;25.50;79.10;;;;;;5116086;28;20121;-64
2023/06/25 11:51:58;;;;;;;;;;;25.50;79.30;;;;;;5115998;28;19992;-64
2023/06/25 11:54:24;;;;;;;;;;;25.70;77.50;;;;;;5116269;28;19988;-64
2023/06/25 11:56:49;;;;;;;;;;;26.00;78.50;;;;;;5116028;28;20465;-64
2023/06/25 11:59:15;;;;;;;;;;;26.00;78.20;;;;;;5116105;28;20443;-64
2023/06/25 12:01:41;;;;;;;;;;;26.00;76.90;;;;;;5115735;28;19989;-64
2023/06/25 12:04:06;;;;;;;;;;;26.20;76.40;;;;;;5115910;28;20447;-64
2023/06/25 12:06:32;;;;;;;;;;;26.40;76.00;;;;;;5115690;28;20367;-64
2023/06/25 12:08:58;;;;;;;;;;;26.50;75.30;;;;;;5115773;28;19988;-64
2023/06/25 12:11:23;;;;;;;;;;;26.60;76.10;;;;;;5115663;28;19992;-64
2023/06/25 12:13:49;;;;;;;;;;;26.70;76.50;;;;;;5115872;28;19995;-64
2023/06/25 12:16:14;;;;;;;;;;;26.90;75.70;;;;;;5115309;28;20332;-64
2023/06/25 12:18:40;;;;;;;;;;;27.00;71.90;;;;;;5115484;28;19988;-64
2023/06/25 12:21:05;;;;;;;;;;;26.90;75.10;;;;;;5115516;28;20026;-64
2023/06/25 12:23:31;;;;;;;;;;;26.80;74.20;;;;;;5115376;28;20350;-64
2023/06/25 12:25:56;;;;;;;;;;;26.90;75.10;;;;;;5115635;28;20416;-64
2023/06/25 12:28:22;;;;;;;;;;;27.10;73.20;;;;;;5115341;28;19985;-64
2023/06/25 12:30:47;;;;;;;;;;;27.10;71.80;;;;;;5114989;28;20012;-64
2023/06/25 12:33:13;;;;;;;;;;;26.90;73.50;;;;;;5115371;28;20031;-64
2023/06/25 12:35:38;;;;;;;;;;;26.80;74.80;;;;;;5115386;28;19988;-64
2023/06/25 12:38:04;;;;;;;;;;;26.50;75.40;;;;;;5115174;28;20395;-64
2023/06/25 12:40:29;;;;;;;;;;;26.30;76.00;;;;;;5115014;28;20469;-64
2023/06/25 12:42:56;;;;;;;;;;;26.20;76.00;;;;;;5115044;28;20378;-64
2023/06/25 12:45:22;;;;;;;;;;;26.10;77.30;;;;;;5095923;28;20397;-64
2023/06/25 12:47:48;;;;;;;;;;;25.90;77.00;;;;;;5114947;28;19993;-64
2023/06/25 12:50:15;;;;;;;;;;;25.80;76.00;;;;;;5114914;28;20008;-64
2023/06/25 12:52:41;;;;;;;;;;;25.50;77.50;;;;;;5114957;28;19984;-64
2023/06/25 12:55:08;;;;;;;;;;;25.50;78.70;;;;;;5114698;28;20518;-64
2023/06/25 12:57:34;;;;;;;;;;;25.50;78.30;;;;;;5114939;28;19985;-64
2023/06/25 13:00:00;;;;;;;;;;;25.40;78.80;;;;;;5115072;28;20019;-64
2023/06/25 13:02:26;;;;;;;;;;;25.30;78.70;;;;;;5114644;28;20030;-64
2023/06/25 13:04:52;;;;;;;;;;;25.20;79.00;;;;;;5114651;28;20385;-64
2023/06/25 13:07:17;;;;;;;;;;;25.10;78.90;;;;;;5114665;28;19985;-64
2023/06/25 13:09:43;;;;;;;;;;;25.10;79.90;;;;;;5114383;28;20015;-65
2023/06/25 13:12:08;;;;;;;;;;;25.10;78.30;;;;;;5114680;28;19985;-64
2023/06/25 13:14:34;;;;;;;;;;;25.10;77.90;;;;;;5114276;28;19989;-64
2023/06/25 13:17:00;;;;;;;;;;;25.00;78.20;;;;;;5114544;28;19992;-64
2023/06/25 13:19:25;;;;;;;;;;;25.00;77.30;;;;;;5114944;28;19985;-65
2023/06/25 13:21:51;;;;;;;;;;;25.00;79.80;;;;;;5114429;28;20507;-64
2023/06/25 13:24:17;;;;;;;;;;;25.00;80.10;;;;;;5114374;28;20003;-64
2023/06/25 13:26:44;;;;;;;;;;;25.10;79.80;;;;;;5114291;28;20359;-64
2023/06/25 13:29:10;;;;;;;;;;;25.20;78.30;;;;;;5114020;28;20020;-64
2023/06/25 13:31:36;;;;;;;;;;;25.20;78.70;;;;;;5114243;28;20451;-64
2023/06/25 13:34:02;;;;;;;;;;;25.10;78.40;;;;;;5114132;28;19988;-64
2023/06/25 13:36:29;;;;;;;;;;;25.20;78.80;;;;;;5114320;28;19985;-64
2023/06/25 13:38:55;;;;;;;;;;;25.30;78.60;;;;;;5114213;28;19985;-64
2023/06/25 13:41:21;;;;;;;;;;;25.40;78.10;;;;;;5114162;28;20351;-64
2023/06/25 13:43:47;;;;;;;;;;;25.60;77.80;;;;;;5113875;28;20004;-64
2023/06/25 13:46:13;;;;;;;;;;;25.70;77.40;;;;;;5113964;28;20439;-64
2023/06/25 13:48:38;;;;;;;;;;;25.60;76.90;;;;;;5114051;28;20023;-64
2023/06/25 13:51:04;;;;;;;;;;;25.60;76.50;;;;;;5114236;28;20114;-65
2023/06/25 13:53:29;;;;;;;;;;;25.50;78.40;;;;;;5114062;28;19988;-65
2023/06/25 13:55:56;;;;;;;;;;;25.50;77.20;;;;;;5113990;28;20346;-64
2023/06/25 13:58:22;;;;;;;;;;;25.50;76.80;;;;;;5117145;28;19985;-64
2023/06/25 14:00:54;;;;;;;;;;;25.50;77.30;;;;;;5118222;28;20071;-65
2023/06/25 14:03:20;;;;;;;;;;;25.50;78.30;;;;;;5118068;28;20035;-64
2023/06/25 14:05:46;;;;;;;;;;;25.60;77.50;;;;;;5118179;28;20027;-66
2023/06/25 14:08:11;;;;;;;;;;;25.50;77.50;;;;;;5117990;28;19988;-64